Time;durP1;ratioP1;P1;durP2;ratioP2;P2;SDS_P1;SDS_P2;PMS_P1;PMS_P2;Temp;Humidity;BMP_temperature;BMP_pressure;BME280_temperature;BME280_humidity;BME280_pressure;Samples;Min_cycle;Max_cycle;Signal;HPM_P1;HPM_P2
2022/02/24 00:00:48;;;;;;;7.10;3.40;;;;;;;3.20;53.70;93252.53;2052226;70;20620;-75
2022/02/24 00:03:15;;;;;;;12.55;5.60;;;;;;;3.17;53.84;93256.44;2051871;69;20611;-77
2022/02/24 00:05:40;;;;;;;12.48;5.68;;;;;;;3.11;54.17;93251.00;2052106;69;20135;-70
2022/02/24 00:08:06;;;;;;;10.18;5.05;;;;;;;2.89;55.43;93251.66;2052103;70;20154;-75
2022/02/24 00:10:32;;;;;;;11.55;4.80;;;;;;;2.86;54.76;93252.75;2052064;70;20676;-75
2022/02/24 00:12:57;;;;;;;10.15;5.25;;;;;;;2.91;54.44;93258.16;2052291;69;20683;-69
2022/02/24 00:15:23;;;;;;;10.00;4.80;;;;;;;2.82;55.06;93246.78;2065035;69;20170;-75
2022/02/24 00:17:48;;;;;;;8.40;3.92;;;;;;;2.94;54.88;93253.53;2052389;70;20203;-73
2022/02/24 00:20:14;;;;;;;10.10;3.92;;;;;;;3.02;54.54;93262.66;2052291;69;20153;-73
2022/02/24 00:22:41;;;;;;;12.35;5.07;;;;;;;2.68;55.60;93251.72;2052274;70;20299;-70
2022/02/24 00:25:07;;;;;;;12.13;5.32;;;;;;;2.73;54.73;93248.78;2052049;70;20174;-69
2022/02/24 00:27:33;;;;;;;14.32;5.53;;;;;;;2.79;55.20;93252.16;2052083;70;20252;-69
2022/02/24 00:30:02;;;;;;;11.07;4.47;;;;;;;2.55;56.59;93247.72;2065031;69;20597;-73
2022/02/24 00:32:28;;;;;;;7.15;3.22;;;;;;;2.90;54.68;93259.44;2052126;69;20181;-70
2022/02/24 00:34:53;;;;;;;5.13;2.47;;;;;;;3.13;52.71;93254.00;2052015;69;20150;-71
2022/02/24 00:37:19;;;;;;;4.75;2.60;;;;;;;2.80;54.33;93252.91;2052256;70;20134;-69
2022/02/24 00:39:46;;;;;;;8.82;4.38;;;;;;;2.73;54.37;93248.78;2052002;69;20165;-72
2022/02/24 00:42:12;;;;;;;10.32;3.40;;;;;;;2.97;53.34;93250.38;2052038;69;20142;-76
2022/02/24 00:44:37;;;;;;;6.68;2.72;;;;;;;2.84;54.38;93244.97;2052181;69;20620;-77
2022/02/24 00:47:03;;;;;;;4.95;2.25;;;;;;;2.98;54.10;93251.16;2052107;70;20219;-69
2022/02/24 00:49:29;;;;;;;3.42;2.33;;;;;;;2.81;54.38;93259.94;2052197;70;20601;-71
2022/02/24 00:51:54;;;;;;;6.45;2.78;;;;;;;2.89;54.48;93248.88;2052115;70;20147;-76
2022/02/24 00:54:20;;;;;;;7.38;2.72;;;;;;;2.96;53.60;93257.25;2052046;69;20178;-77
2022/02/24 00:56:45;;;;;;;9.80;3.22;;;;;;;2.88;53.56;93253.66;2051872;69;20593;-69
2022/02/24 00:59:12;;;;;;;5.63;2.90;;;;;;;2.69;54.68;93248.38;2052163;69;20142;-74
2022/02/24 01:01:38;;;;;;;7.10;2.97;;;;;;;2.70;54.11;93244.31;2051987;70;20158;-70
2022/02/24 01:04:04;;;;;;;6.70;3.47;;;;;;;2.56;55.08;93242.91;2051990;70;20213;-71
2022/02/24 01:06:30;;;;;;;6.10;3.28;;;;;;;2.65;54.20;93261.13;2052035;70;20604;-72
2022/02/24 01:08:56;;;;;;;5.25;2.90;;;;;;;2.64;54.34;93251.31;2051897;70;20158;-71
2022/02/24 01:11:21;;;;;;;6.05;2.60;;;;;;;2.78;53.80;93245.09;2051873;70;20162;-69
2022/02/24 01:13:47;;;;;;;6.07;2.53;;;;;;;2.43;54.39;93249.31;2051926;70;20231;-70
2022/02/24 01:16:13;;;;;;;6.30;3.05;;;;;;;2.59;54.54;93247.38;2052015;70;20150;-72
2022/02/24 01:18:39;;;;;;;5.53;2.58;;;;;;;2.81;54.19;93246.03;2052056;70;20583;-70
2022/02/24 01:21:04;;;;;;;4.70;2.55;;;;;;;2.69;53.84;93234.47;2051913;70;20149;-70
2022/02/24 01:23:30;;;;;;;4.35;2.30;;;;;;;2.76;54.15;93238.59;2064876;69;20139;-72
2022/02/24 01:25:56;;;;;;;2.67;1.65;;;;;;;2.87;54.28;93232.72;2064674;69;20520;-73
2022/02/24 01:28:22;;;;;;;2.95;1.65;;;;;;;2.77;53.92;93231.75;2051862;70;20146;-71
2022/02/24 01:30:47;;;;;;;2.78;1.52;;;;;;;2.93;53.06;93225.00;2051970;70;20193;-69
2022/02/24 01:33:13;;;;;;;3.95;1.65;;;;;;;2.98;52.56;93226.88;2051886;70;20177;-76
2022/02/24 01:35:39;;;;;;;2.38;1.60;;;;;;;3.01;51.85;93225.75;2051956;70;20138;-76
2022/02/24 01:38:04;;;;;;;5.78;2.60;;;;;;;2.55;53.71;93221.97;2052135;70;20579;-76
2022/02/24 01:40:30;;;;;;;4.40;2.15;;;;;;;2.38;54.72;93219.63;2051952;69;20154;-72
2022/02/24 01:42:56;;;;;;;4.63;2.30;;;;;;;2.58;54.15;93222.94;2052040;70;20229;-73
2022/02/24 01:45:21;;;;;;;4.82;2.20;;;;;;;2.47;54.52;93213.56;2051917;69;20683;-73
2022/02/24 01:47:47;;;;;;;3.50;2.20;;;;;;;2.65;53.50;93214.63;2051931;69;20174;-73
2022/02/24 01:50:13;;;;;;;3.45;2.00;;;;;;;2.77;52.80;93215.81;2052101;70;20174;-72
2022/02/24 01:52:41;;;;;;;4.07;1.95;;;;;;;2.70;53.69;93197.06;2051960;70;20630;-74
2022/02/24 01:55:08;;;;;;;4.32;1.92;;;;;;;2.91;52.88;93201.78;2051670;70;20601;-72
2022/02/24 01:57:34;;;;;;;5.00;1.60;;;;;;;2.93;52.69;93199.19;2051822;70;20540;-72
2022/02/24 01:59:59;;;;;;;4.05;2.20;;;;;;;2.75;52.83;93201.72;2051814;70;20270;-75
2022/02/24 02:02:25;;;;;;;5.18;2.45;;;;;;;2.75;53.00;93209.31;2051815;69;20134;-70
2022/02/24 02:04:51;;;;;;;3.78;2.33;;;;;;;2.72;52.84;93199.28;2051977;70;20142;-69
2022/02/24 02:07:16;;;;;;;4.20;2.17;;;;;;;2.77;53.39;93193.56;2051595;70;20152;-71
2022/02/24 02:09:42;;;;;;;6.18;1.70;;;;;;;2.79;53.46;93191.00;2051512;69;20242;-73
2022/02/24 02:12:09;;;;;;;2.50;1.67;;;;;;;2.76;53.17;93183.00;2051966;70;20513;-75
2022/02/24 02:14:39;;;;;;;3.35;1.50;;;;;;;2.76;53.83;93185.78;2051803;69;20524;-75
2022/02/24 02:17:05;;;;;;;3.42;1.88;;;;;;;2.75;52.49;93190.59;2052294;70;20618;-69
2022/02/24 02:19:31;;;;;;;9.50;2.22;;;;;;;2.88;51.81;93183.41;2052119;70;20158;-73
2022/02/24 02:21:57;;;;;;;3.03;1.90;;;;;;;2.91;52.34;93177.50;2051981;70;20146;-70
2022/02/24 02:24:23;;;;;;;5.75;2.03;;;;;;;3.04;51.53;93176.63;2052013;69;20154;-71
2022/02/24 02:26:49;;;;;;;3.95;1.80;;;;;;;3.04;51.26;93180.16;2052336;69;20145;-73
2022/02/24 02:29:16;;;;;;;4.53;2.05;;;;;;;2.80;52.29;93177.81;2052102;69;20146;-71
2022/02/24 02:31:43;;;;;;;3.30;1.95;;;;;;;2.95;51.71;93183.44;2052267;70;21038;-74
2022/02/24 02:34:13;;;;;;;2.58;1.45;;;;;;;2.98;52.12;93176.06;2052329;70;20150;-74
2022/02/24 02:36:41;;;;;;;4.32;2.13;;;;;;;3.00;51.50;93168.63;2052132;70;20165;-69
2022/02/24 02:39:12;;;;;;;4.05;1.80;;;;;;;2.95;51.77;93172.31;2052250;70;20138;-69
2022/02/24 02:41:39;;;;;;;3.75;2.30;;;;;;;2.81;52.46;93170.97;2052186;69;20184;-69
2022/02/24 02:44:06;;;;;;;8.90;2.58;;;;;;;2.84;52.10;93160.75;2051813;70;20245;-71
2022/02/24 02:46:33;;;;;;;9.43;2.88;;;;;;;2.79;52.61;93159.63;2052215;70;20150;-75
2022/02/24 02:48:58;;;;;;;5.55;2.53;;;;;;;2.89;51.86;93165.44;2052230;69;20253;-72
2022/02/24 02:51:28;;;;;;;5.38;2.60;;;;;;;2.57;52.92;93157.47;2052124;69;20165;-69
2022/02/24 02:53:54;;;;;;;3.63;1.90;;;;;;;2.60;53.23;93148.81;2052167;69;20146;-72
2022/02/24 02:56:20;;;;;;;4.40;2.30;;;;;;;2.85;51.82;93157.47;2052267;69;20149;-74
2022/02/24 02:58:45;;;;;;;4.10;2.25;;;;;;;2.85;51.69;93146.34;2052513;69;20146;-68
2022/02/24 03:01:11;;;;;;;4.15;1.83;;;;;;;2.94;51.24;93147.84;2052239;70;20153;-69
2022/02/24 03:03:37;;;;;;;3.28;1.63;;;;;;;2.79;52.66;93143.72;2052060;70;20166;-69
2022/02/24 03:06:03;;;;;;;3.20;1.95;;;;;;;2.84;51.76;93142.06;2052286;70;20184;-69
2022/02/24 03:08:29;;;;;;;3.28;1.90;;;;;;;2.67;52.68;93142.53;2065083;69;20524;-71
2022/02/24 03:10:55;;;;;;;3.95;1.90;;;;;;;2.64;53.07;93142.91;2052071;70;20170;-70
2022/02/24 03:13:21;;;;;;;4.53;2.35;;;;;;;2.72;52.91;93138.13;2065167;69;20477;-69
2022/02/24 03:15:47;;;;;;;4.47;2.25;;;;;;;2.57;53.71;93124.91;2052055;69;20157;-69
2022/02/24 03:18:13;;;;;;;4.90;2.10;;;;;;;2.64;53.04;93137.34;2052471;70;20150;-74
2022/02/24 03:20:38;;;;;;;2.78;1.80;;;;;;;2.45;53.92;93123.72;2052430;69;20142;-74
2022/02/24 03:23:06;;;;;;;3.65;1.75;;;;;;;2.80;52.07;93122.97;2052263;70;20501;-71
2022/02/24 03:25:32;;;;;;;5.38;2.00;;;;;;;2.94;51.14;93120.78;2052193;69;20146;-69
2022/02/24 03:27:59;;;;;;;4.65;1.50;;;;;;;2.75;52.53;93120.34;2052219;70;20235;-72
2022/02/24 03:30:27;;;;;;;3.58;2.03;;;;;;;2.72;52.68;93116.63;2052452;70;20537;-69
2022/02/24 03:32:52;;;;;;;2.47;1.42;;;;;;;2.74;52.99;93114.00;2065391;69;20215;-76
2022/02/24 03:35:19;;;;;;;3.58;1.77;;;;;;;2.73;52.91;93120.13;2052438;70;20158;-73
2022/02/24 03:37:47;;;;;;;2.75;1.80;;;;;;;2.80;51.84;93117.41;2052257;70;20651;-73
2022/02/24 03:40:14;;;;;;;2.50;1.35;;;;;;;2.70;53.00;93107.31;2052140;69;20158;-73
2022/02/24 03:42:40;;;;;;;2.20;1.40;;;;;;;2.86;51.87;93105.38;2052268;69;20181;-70
2022/02/24 03:45:06;;;;;;;5.18;2.03;;;;;;;2.66;52.80;93102.16;2052340;70;20161;-70
2022/02/24 03:47:32;;;;;;;4.63;2.10;;;;;;;2.70;53.17;93104.53;2052135;70;20173;-73
2022/02/24 03:49:58;;;;;;;5.40;1.70;;;;;;;2.76;52.43;93097.53;2052204;69;20601;-69
2022/02/24 03:52:23;;;;;;;1.40;1.10;;;;;;;2.73;52.40;93089.56;2052262;69;20142;-70
2022/02/24 03:54:49;;;;;;;2.70;1.80;;;;;;;2.55;52.90;93088.56;2052336;69;20146;-72
2022/02/24 03:57:15;;;;;;;4.15;2.85;;;;;;;2.51;53.23;93090.94;2052501;70;20150;-70
2022/02/24 03:59:42;;;;;;;5.57;2.85;;;;;;;2.58;53.68;93083.94;2052341;70;20153;-70
2022/02/24 04:02:08;;;;;;;3.55;2.17;;;;;;;2.19;55.62;93089.31;2065247;69;20161;-70
2022/02/24 04:04:35;;;;;;;4.15;2.20;;;;;;;2.39;54.29;93079.41;2052477;70;20161;-70
2022/02/24 04:07:01;;;;;;;5.43;2.28;;;;;;;2.31;53.50;93080.66;2052309;70;20155;-72
2022/02/24 04:09:27;;;;;;;4.35;1.83;;;;;;;2.38;53.91;93086.25;2052249;70;20146;-71
2022/02/24 04:11:53;;;;;;;3.72;2.20;;;;;;;2.46;54.08;93089.06;2052323;70;20211;-68
2022/02/24 04:14:19;;;;;;;5.90;2.05;;;;;;;2.45;53.15;93087.59;2052542;69;20157;-72
2022/02/24 04:16:44;;;;;;;5.03;2.13;;;;;;;2.43;52.70;93079.81;2052351;69;20134;-73
2022/02/24 04:19:10;;;;;;;4.75;2.20;;;;;;;2.44;52.91;93080.56;2052323;69;20631;-75
2022/02/24 04:21:35;;;;;;;4.18;2.50;;;;;;;2.32;53.73;93082.16;2052343;70;20138;-70
2022/02/24 04:24:02;;;;;;;6.78;2.63;;;;;;;2.33;53.70;93073.25;2052381;70;20157;-70
2022/02/24 04:26:28;;;;;;;5.43;2.08;;;;;;;2.23;54.03;93069.50;2052235;69;20151;-70
2022/02/24 04:28:54;;;;;;;7.40;2.65;;;;;;;2.37;53.48;93056.25;2052333;69;20620;-70
2022/02/24 04:31:19;;;;;;;11.00;3.53;;;;;;;2.27;53.89;93067.88;2052423;70;20600;-73
2022/02/24 04:33:45;;;;;;;5.75;3.08;;;;;;;2.21;54.27;93061.00;2052425;70;20150;-72
2022/02/24 04:36:11;;;;;;;5.38;2.70;;;;;;;2.21;53.32;93053.41;2052426;70;20153;-73
2022/02/24 04:38:36;;;;;;;7.03;2.60;;;;;;;2.12;54.44;93051.13;2052347;69;20150;-73
2022/02/24 04:41:02;;;;;;;5.63;3.30;;;;;;;2.15;54.66;93057.59;2052248;69;20596;-78
2022/02/24 04:43:28;;;;;;;6.82;3.55;;;;;;;2.02;54.58;93056.44;2052456;70;20186;-79
2022/02/24 04:45:53;;;;;;;10.35;4.97;;;;;;;2.00;55.83;93059.00;2052535;69;20166;-78
2022/02/24 04:48:21;;;;;;;10.15;6.25;;;;;;;1.95;54.69;93051.59;2052335;70;20150;-74
2022/02/24 04:50:47;;;;;;;14.40;6.35;;;;;;;2.02;54.75;93042.56;2052351;70;20146;-71
2022/02/24 04:53:14;;;;;;;12.07;6.18;;;;;;;1.94;55.18;93046.59;2052324;70;20142;-70
2022/02/24 04:55:39;;;;;;;10.90;5.90;;;;;;;1.85;55.78;93036.72;2065213;69;20168;-70
2022/02/24 04:58:05;;;;;;;9.85;5.68;;;;;;;1.89;55.79;93039.16;2052350;70;20178;-70
2022/02/24 05:00:31;;;;;;;10.52;4.50;;;;;;;1.99;55.63;93040.88;2052358;70;20138;-70
2022/02/24 05:02:56;;;;;;;11.32;5.43;;;;;;;1.76;56.49;93035.19;2052289;70;20736;-74
2022/02/24 05:05:22;;;;;;;14.20;5.43;;;;;;;1.68;56.16;93037.16;2052263;70;20150;-79
2022/02/24 05:07:48;;;;;;;10.20;5.38;;;;;;;1.67;56.73;93030.13;2065225;69;20173;-74
2022/02/24 05:10:14;;;;;;;12.15;5.70;;;;;;;1.74;56.58;93021.13;2052134;69;20165;-70
2022/02/24 05:12:40;;;;;;;13.50;6.15;;;;;;;1.74;56.05;93026.66;2052250;70;20146;-75
2022/02/24 05:15:06;;;;;;;15.13;7.50;;;;;;;1.67;56.64;93023.84;2052194;70;20146;-70
2022/02/24 05:17:32;;;;;;;14.02;6.75;;;;;;;1.80;56.12;93023.72;2052434;69;20199;-71
2022/02/24 05:20:01;;;;;;;10.40;5.88;;;;;;;1.81;55.41;93007.81;2052211;70;20194;-76
2022/02/24 05:22:27;;;;;;;11.27;4.70;;;;;;;1.76;55.80;93020.56;2052207;70;20181;-71
2022/02/24 05:24:52;;;;;;;13.85;5.88;;;;;;;1.73;56.65;93021.66;2052182;70;20256;-71
2022/02/24 05:27:18;;;;;;;10.05;5.32;;;;;;;1.70;56.45;93023.50;2052209;70;20866;-70
2022/02/24 05:29:44;;;;;;;8.00;4.40;;;;;;;1.58;57.38;93016.75;2052211;70;20154;-70
2022/02/24 05:32:09;;;;;;;12.38;6.50;;;;;;;1.40;57.41;93020.50;2065081;69;20231;-70
2022/02/24 05:34:35;;;;;;;11.85;6.97;;;;;;;1.25;58.04;93018.38;2052275;70;20180;-70
2022/02/24 05:37:01;;;;;;;13.52;4.80;;;;;;;1.52;57.20;93019.69;2052148;70;20553;-72
2022/02/24 05:39:27;;;;;;;9.00;4.40;;;;;;;1.62;57.24;93005.31;2052070;69;20181;-70
2022/02/24 05:41:53;;;;;;;6.75;3.40;;;;;;;1.75;55.73;93011.50;2065098;69;20157;-71
2022/02/24 05:44:18;;;;;;;9.20;4.40;;;;;;;1.74;55.35;93012.78;2052090;70;20158;-71
2022/02/24 05:46:45;;;;;;;10.32;4.15;;;;;;;1.82;56.01;92998.94;2052249;70;20570;-71
2022/02/24 05:49:15;;;;;;;9.77;4.05;;;;;;;1.76;55.68;93001.88;2052153;70;20149;-76
2022/02/24 05:51:41;;;;;;;7.88;3.60;;;;;;;1.64;56.03;93011.03;2052099;70;20174;-73
2022/02/24 05:54:07;;;;;;;7.85;3.72;;;;;;;1.70;55.59;93008.88;2052108;70;20636;-71
2022/02/24 05:56:33;;;;;;;8.25;4.65;;;;;;;1.81;54.62;93013.38;2052065;70;20150;-77
2022/02/24 05:58:58;;;;;;;13.98;4.40;;;;;;;1.70;55.42;93008.88;2052182;70;20161;-70
2022/02/24 06:01:24;;;;;;;8.15;3.45;;;;;;;1.81;54.79;93008.56;2052161;70;20229;-71
2022/02/24 06:03:49;;;;;;;7.80;4.30;;;;;;;1.65;55.69;93009.75;2052229;70;20134;-70
2022/02/24 06:06:15;;;;;;;12.98;3.88;;;;;;;1.63;56.47;93009.56;2052134;69;20241;-70
2022/02/24 06:08:41;;;;;;;6.78;3.45;;;;;;;1.77;55.99;93003.34;2052092;70;20147;-70
2022/02/24 06:11:06;;;;;;;6.63;3.42;;;;;;;1.71;55.69;92999.25;2051926;70;20266;-70
2022/02/24 06:13:32;;;;;;;6.13;3.40;;;;;;;1.72;55.19;93007.03;2052086;69;20150;-74
2022/02/24 06:15:59;;;;;;;8.02;3.88;;;;;;;1.59;56.53;93012.69;2052149;70;20171;-74
2022/02/24 06:18:24;;;;;;;6.55;3.88;;;;;;;1.74;55.73;93012.03;2052096;70;20138;-70
2022/02/24 06:20:50;;;;;;;7.13;3.90;;;;;;;1.81;55.02;93008.56;2052104;70;20516;-70
2022/02/24 06:23:15;;;;;;;7.70;3.90;;;;;;;1.69;56.33;93007.38;2052034;70;20137;-73
2022/02/24 06:25:41;;;;;;;8.15;4.00;;;;;;;1.81;55.56;93010.59;2052102;70;20231;-71
2022/02/24 06:28:07;;;;;;;7.65;4.05;;;;;;;1.90;55.06;93005.28;2052041;70;20149;-74
2022/02/24 06:30:32;;;;;;;7.13;3.78;;;;;;;1.70;56.53;93011.66;2052033;70;20680;-72
2022/02/24 06:32:58;;;;;;;11.13;3.95;;;;;;;1.87;55.45;93014.69;2052150;70;20521;-69
2022/02/24 06:35:24;;;;;;;8.63;3.65;;;;;;;1.96;55.48;93007.91;2052165;70;20146;-70
2022/02/24 06:37:49;;;;;;;7.78;4.18;;;;;;;1.94;55.28;93004.94;2052070;70;20627;-70
2022/02/24 06:40:15;;;;;;;7.53;3.90;;;;;;;1.89;55.14;92998.25;2051976;70;20157;-70
2022/02/24 06:42:41;;;;;;;7.82;3.50;;;;;;;2.07;55.14;92995.75;2052031;70;20281;-71
2022/02/24 06:45:07;;;;;;;12.43;6.00;;;;;;;2.09;55.09;92985.56;2051977;70;20237;-72
2022/02/24 06:47:35;;;;;;;5.57;3.60;;;;;;;2.31;54.77;92983.44;2051975;70;20182;-70
2022/02/24 06:50:01;;;;;;;5.40;3.25;;;;;;;2.33;55.32;92989.91;2051961;70;20134;-71
2022/02/24 06:52:27;;;;;;;6.05;3.00;;;;;;;2.32;54.12;92982.88;2052003;70;20216;-72
2022/02/24 06:54:53;;;;;;;11.00;3.25;;;;;;;2.40;52.55;92991.25;2051795;70;20144;-76
2022/02/24 06:57:18;;;;;;;8.43;4.28;;;;;;;2.42;53.02;92985.84;2051987;70;20162;-71
2022/02/24 06:59:44;;;;;;;8.32;3.33;;;;;;;2.69;52.85;92994.66;2051946;69;20234;-71
2022/02/24 07:02:09;;;;;;;3.67;1.98;;;;;;;2.76;53.64;92989.09;2051905;70;20685;-70
2022/02/24 07:04:35;;;;;;;10.60;5.00;;;;;;;2.56;52.74;92981.63;2051938;70;20177;-70
2022/02/24 07:07:02;;;;;;;16.60;5.82;;;;;;;2.65;52.50;92999.81;2051906;69;20524;-72
2022/02/24 07:09:28;;;;;;;14.38;5.50;;;;;;;2.77;52.90;93001.72;2051887;70;20158;-70
2022/02/24 07:11:54;;;;;;;12.27;6.50;;;;;;;2.86;53.33;92991.34;2052199;70;20637;-69
2022/02/24 07:14:21;;;;;;;11.82;5.38;;;;;;;2.87;53.91;92990.78;2052461;69;20142;-70
2022/02/24 07:16:47;;;;;;;11.88;5.97;;;;;;;2.98;53.02;92986.91;2052588;70;20150;-75
2022/02/24 07:19:14;;;;;;;12.80;6.18;;;;;;;2.97;53.43;92990.97;2052617;70;20146;-75
2022/02/24 07:21:40;;;;;;;16.30;5.13;;;;;;;3.09;53.69;92988.59;2052711;69;20201;-80
2022/02/24 07:24:06;;;;;;;10.02;5.32;;;;;;;3.21;51.87;92973.75;2052465;70;20247;-73
2022/02/24 07:26:32;;;;;;;14.68;5.75;;;;;;;3.03;52.77;92981.16;2052316;70;20146;-72
2022/02/24 07:28:58;;;;;;;12.93;5.75;;;;;;;3.19;53.43;92976.34;2052581;70;20216;-74
2022/02/24 07:31:24;;;;;;;10.60;5.70;;;;;;;3.31;53.75;92980.25;2052469;70;20150;-73
2022/02/24 07:33:50;;;;;;;15.50;6.43;;;;;;;3.29;52.69;92970.97;2065357;69;20134;-72
2022/02/24 07:36:16;;;;;;;16.65;6.43;;;;;;;3.52;52.22;92963.34;2052405;70;20563;-71
2022/02/24 07:38:43;;;;;;;12.88;6.20;;;;;;;3.62;52.75;92969.09;2052425;70;20150;-72
2022/02/24 07:41:09;;;;;;;12.32;5.88;;;;;;;3.68;52.46;92954.97;2065252;69;20177;-70
2022/02/24 07:43:36;;;;;;;14.05;5.80;;;;;;;3.82;51.55;92959.75;2052475;70;20162;-70
2022/02/24 07:46:02;;;;;;;20.15;6.85;;;;;;;3.81;51.77;92961.06;2052379;70;20622;-69
2022/02/24 07:48:29;;;;;;;16.75;7.13;;;;;;;3.76;51.94;92958.50;2065283;69;20253;-69
2022/02/24 07:50:55;;;;;;;14.75;7.25;;;;;;;3.90;51.34;92956.97;2065408;69;20154;-77
2022/02/24 07:53:22;;;;;;;20.58;6.75;;;;;;;3.95;51.23;92953.22;2052645;70;20139;-73
2022/02/24 07:55:48;;;;;;;21.60;7.22;;;;;;;4.02;53.11;92957.28;2052271;69;20219;-77
2022/02/24 07:58:14;;;;;;;17.75;7.20;;;;;;;4.11;51.42;92951.13;2052580;70;20724;-72
2022/02/24 08:00:40;;;;;;;12.68;6.78;;;;;;;4.02;51.17;92949.66;2052426;70;20141;-70
2022/02/24 08:03:06;;;;;;;22.48;7.35;;;;;;;4.06;52.41;92946.50;2052503;69;20150;-71
2022/02/24 08:05:32;;;;;;;17.48;7.85;;;;;;;4.23;52.27;92938.25;2052467;70;20153;-78
2022/02/24 08:07:58;;;;;;;19.52;8.65;;;;;;;4.32;52.43;92931.34;2052412;70;20230;-72
2022/02/24 08:10:23;;;;;;;17.08;7.22;;;;;;;4.29;52.21;92926.91;2052247;69;20255;-77
2022/02/24 08:12:49;;;;;;;16.50;6.93;;;;;;;4.22;52.83;92925.63;2052344;70;20153;-73
2022/02/24 08:15:18;;;;;;;12.05;7.30;;;;;;;4.39;52.71;92919.41;2052322;69;20165;-74
2022/02/24 08:17:45;;;;;;;17.40;6.65;;;;;;;4.54;52.42;92910.97;2052322;70;20225;-70
2022/02/24 08:20:12;;;;;;;20.95;7.43;;;;;;;4.32;51.52;92912.59;2052320;69;20609;-70
2022/02/24 08:22:40;;;;;;;21.15;7.85;;;;;;;4.45;50.95;92905.28;2052278;70;20505;-70
2022/02/24 08:25:08;;;;;;;17.23;7.68;;;;;;;4.72;51.67;92903.44;2051995;70;20150;-70
2022/02/24 08:27:35;;;;;;;25.02;9.77;;;;;;;4.62;50.36;92891.41;2052310;69;20154;-70
2022/02/24 08:30:06;;;;;;;25.17;8.80;;;;;;;4.66;50.47;92886.16;2052280;70;20142;-70
2022/02/24 08:32:32;;;;;;;22.27;9.30;;;;;;;4.78;51.62;92886.47;2065216;69;20521;-69
2022/02/24 08:34:58;;;;;;;17.10;8.10;;;;;;;5.31;50.68;92888.81;2052275;69;20164;-69
2022/02/24 08:37:27;;;;;;;17.60;8.48;;;;;;;5.56;50.27;92879.66;2052335;70;20175;-71
2022/02/24 08:39:53;;;;;;;20.08;9.07;;;;;;;5.90;50.36;92881.69;2052156;70;20146;-75
2022/02/24 08:42:22;;;;;;;22.65;12.50;;;;;;;6.36;49.39;92867.91;2052307;70;20194;-72
2022/02/24 08:44:49;;;;;;;20.77;10.52;;;;;;;6.90;49.60;92872.00;2065271;69;20142;-76
2022/02/24 08:47:15;;;;;;;19.88;8.70;;;;;;;7.23;48.13;92872.41;2052284;70;20222;-71
2022/02/24 08:49:40;;;;;;;16.77;7.65;;;;;;;7.41;46.14;92873.03;2052287;70;20219;-72
2022/02/24 08:52:07;;;;;;;15.13;7.30;;;;;;;7.90;46.46;92888.59;2052275;70;20237;-71
2022/02/24 08:54:32;;;;;;;15.35;7.07;;;;;;;7.92;44.86;92873.97;2052053;70;20212;-71
2022/02/24 08:57:00;;;;;;;21.38;7.85;;;;;;;8.47;46.02;92877.97;2052353;70;20640;-71
2022/02/24 08:59:25;;;;;;;21.13;8.48;;;;;;;8.82;45.13;92867.81;2052382;70;20605;-70
2022/02/24 09:01:51;;;;;;;16.08;6.55;;;;;;;8.72;43.93;92858.72;2052303;69;20158;-70
2022/02/24 09:04:18;;;;;;;11.30;6.10;;;;;;;9.14;42.96;92863.72;2052367;70;20147;-70
2022/02/24 09:06:44;;;;;;;8.55;4.45;;;;;;;8.81;41.52;92860.75;2052325;70;20138;-73
2022/02/24 09:09:10;;;;;;;10.05;4.78;;;;;;;8.97;41.12;92857.59;2052146;70;20161;-70
2022/02/24 09:11:35;;;;;;;12.68;6.10;;;;;;;8.85;40.57;92861.03;2052130;70;20154;-72
2022/02/24 09:14:01;;;;;;;30.70;14.75;;;;;;;9.26;42.96;92852.59;2052178;70;20130;-72
2022/02/24 09:16:27;;;;;;;20.40;11.35;;;;;;;10.22;41.62;92856.06;2052242;70;20158;-72
2022/02/24 09:18:53;;;;;;;11.73;5.68;;;;;;;10.63;40.85;92853.78;2052309;69;20529;-71
2022/02/24 09:21:19;;;;;;;15.18;5.97;;;;;;;10.66;40.56;92849.00;2052261;70;20178;-72
2022/02/24 09:23:44;;;;;;;17.08;6.60;;;;;;;10.42;38.96;92846.13;2052204;70;20157;-71
2022/02/24 09:26:10;;;;;;;14.85;6.85;;;;;;;10.93;38.19;92846.47;2052094;70;20494;-71
2022/02/24 09:28:36;;;;;;;14.75;6.07;;;;;;;11.27;38.36;92835.88;2052135;70;20157;-72
2022/02/24 09:31:02;;;;;;;13.10;6.30;;;;;;;11.07;35.69;92845.88;2052269;70;20237;-71
2022/02/24 09:33:28;;;;;;;9.82;5.38;;;;;;;11.22;36.82;92833.38;2052186;70;20158;-71
2022/02/24 09:35:54;;;;;;;10.75;5.50;;;;;;;10.93;36.71;92835.22;2052043;69;20150;-71
2022/02/24 09:38:20;;;;;;;14.18;7.07;;;;;;;11.39;37.31;92835.84;2052126;70;20178;-72
2022/02/24 09:40:51;;;;;;;11.50;5.68;;;;;;;11.76;35.47;92832.34;2052045;70;20169;-71
2022/02/24 09:43:18;;;;;;;6.50;3.83;;;;;;;11.84;35.53;92830.03;2052103;70;20612;-71
2022/02/24 09:45:47;;;;;;;3.47;2.63;;;;;;;11.99;35.74;92823.13;2052096;70;20149;-72
2022/02/24 09:48:14;;;;;;;4.70;2.60;;;;;;;12.51;34.91;92819.75;2052231;70;20195;-72
2022/02/24 09:50:40;;;;;;;7.20;2.88;;;;;;;12.72;34.53;92824.41;2052108;70;20612;-72
2022/02/24 09:53:06;;;;;;;6.78;2.63;;;;;;;13.39;33.96;92827.28;2052252;70;20183;-71
2022/02/24 09:55:32;;;;;;;7.68;2.40;;;;;;;13.03;33.18;92820.41;2051922;70;20208;-72
2022/02/24 09:57:58;;;;;;;5.18;2.28;;;;;;;13.19;33.16;92816.38;2052117;70;20173;-70
2022/02/24 10:00:24;;;;;;;6.72;2.30;;;;;;;14.45;32.00;92819.19;2052109;69;20149;-73
2022/02/24 10:02:49;;;;;;;7.30;3.65;;;;;;;13.90;30.78;92810.81;2052055;70;20146;-73
2022/02/24 10:05:16;;;;;;;7.15;2.75;;;;;;;14.56;31.16;92802.69;2052132;70;20149;-72
2022/02/24 10:07:43;;;;;;;5.13;2.38;;;;;;;14.30;30.09;92807.81;2052101;70;20225;-72
2022/02/24 10:10:32;;;;;;;4.20;2.20;;;;;;;13.90;30.55;92798.78;2052024;70;20177;-72
2022/02/24 10:13:10;;;;;;;5.60;1.73;;;;;;;15.79;29.96;92806.16;2052096;69;20154;-72
2022/02/24 10:15:51;;;;;;;5.13;2.67;;;;;;;15.94;29.64;92799.69;2052025;70;20219;-71
2022/02/24 10:18:18;;;;;;;3.95;2.00;;;;;;;16.21;29.88;92807.94;2052116;69;20139;-72
2022/02/24 10:20:56;;;;;;;6.07;2.30;;;;;;;15.55;28.54;92803.69;2052037;70;20196;-73
2022/02/24 10:23:39;;;;;;;4.28;2.00;;;;;;;16.29;28.43;92804.72;2052034;70;20584;-70
2022/02/24 10:26:09;;;;;;;;;;;;;;;16.23;27.63;92807.31;2052160;70;20219;-70
2022/02/24 10:28:48;;;;;;;3.13;1.80;;;;;;;16.32;27.55;92803.44;2052168;70;20042;-71
2022/02/24 10:31:23;;;;;;;3.33;1.80;;;;;;;16.33;28.14;92799.22;2052094;69;20580;-70
2022/02/24 10:33:52;;;;;;;2.33;1.67;;;;;;;16.86;26.40;92794.91;2052053;70;20621;-70
2022/02/24 10:36:25;;;;;;;3.72;1.70;;;;;;;16.52;25.90;92766.56;2052105;70;20234;-71
2022/02/24 10:39:00;;;;;;;2.50;1.60;;;;;;;16.09;26.09;92772.66;2052161;70;20154;-71
2022/02/24 10:41:31;;;;;;;2.33;1.50;;;;;;;17.51;25.87;92766.09;2051877;70;20586;-71
2022/02/24 10:44:18;;;;;;;5.03;1.70;;;;;;;17.01;25.95;92768.50;2064969;69;20225;-71
2022/02/24 10:46:49;;;;;;;4.03;1.65;;;;;;;16.77;26.23;92760.50;2052078;70;20177;-71
2022/02/24 10:49:36;;;;;;;3.15;1.27;;;;;;;17.38;24.66;92747.84;2052465;70;20143;-71
2022/02/24 10:52:20;;;;;;;8.55;1.60;;;;;;;17.17;24.04;92746.34;2052529;70;20497;-72
2022/02/24 10:54:56;;;;;;;2.38;1.15;;;;;;;17.51;25.06;92749.75;2052503;70;20147;-71
2022/02/24 10:57:25;;;;;;;3.00;1.20;;;;;;;18.12;23.59;92750.41;2052490;70;20144;-72
2022/02/24 10:59:55;;;;;;;2.75;1.38;;;;;;;18.77;24.34;92750.41;2052478;70;20146;-71
2022/02/24 11:02:21;;;;;;;6.03;1.30;;;;;;;19.18;22.83;92745.22;2052616;70;20153;-73
2022/02/24 11:04:49;;;;;;;2.85;1.10;;;;;;;19.49;22.32;92744.72;2052460;70;20146;-73
2022/02/24 11:07:16;;;;;;;3.72;1.20;;;;;;;19.54;21.60;92739.84;2052527;70;20215;-73
2022/02/24 11:09:43;;;;;;;1.60;1.20;;;;;;;19.86;21.54;92742.91;2052318;69;20158;-73
2022/02/24 11:12:13;;;;;;;1.42;1.23;;;;;;;20.47;21.06;92741.63;2052627;70;20162;-72
2022/02/24 11:14:40;;;;;;;3.90;1.27;;;;;;;21.28;21.24;92727.75;2052443;70;20179;-74
2022/02/24 11:17:10;;;;;;;2.05;1.35;;;;;;;21.74;20.98;92730.16;2052559;70;20154;-74
2022/02/24 11:19:37;;;;;;;2.03;1.10;;;;;;;22.21;19.42;92705.25;2052489;70;20233;-75
2022/02/24 11:22:04;;;;;;;1.98;1.10;;;;;;;21.12;20.45;92705.25;2052439;70;20207;-73
2022/02/24 11:24:29;;;;;;;3.97;1.25;;;;;;;22.93;18.86;92692.81;2052350;69;20620;-73
2022/02/24 11:27:01;;;;;;;2.50;1.10;;;;;;;24.30;18.58;92701.69;2052548;70;20147;-73
2022/02/24 11:29:42;;;;;;;2.08;1.00;;;;;;;24.57;16.94;92702.69;2052548;70;20619;-73
2022/02/24 11:32:10;;;;;;;5.68;3.20;;;;;;;24.97;17.80;92697.94;2052541;70;20147;-73
2022/02/24 11:34:54;;;;;;;3.67;1.80;;;;;;;25.00;17.72;92693.66;2052376;70;20257;-74